createdAt,value
2023-04-02T00:00:09.644Z,99376.84
2023-04-02T00:03:22.338Z,99367.22
2023-04-02T00:06:35.107Z,99369.38
2023-04-02T00:09:42.644Z,99367.78
2023-04-02T00:13:00.336Z,99360.69
2023-04-02T00:16:05.714Z,99364.25
2023-04-02T00:19:18.370Z,99364.34
2023-04-02T00:22:28.053Z,99373.91
2023-04-02T00:25:42.987Z,99361.69
2023-04-02T00:28:45.361Z,99367.97
2023-04-02T00:31:52.781Z,99368.78
2023-04-02T00:34:58.372Z,99367.84
2023-04-02T00:38:02.034Z,99359.41
2023-04-02T00:41:21.239Z,99373.03
2023-04-02T00:44:23.742Z,99370.31
2023-04-02T00:47:32.696Z,99369.16
2023-04-02T00:50:39.974Z,99370.06
2023-04-02T00:53:48.185Z,99364.28
2023-04-02T00:56:54.468Z,99357.75
2023-04-02T01:00:09.018Z,99371.31
2023-04-02T01:03:22.917Z,99377.66
2023-04-02T01:06:34.376Z,99373.63
2023-04-02T01:09:51.874Z,99380.66
2023-04-02T01:13:23.250Z,99380.66
2023-04-02T01:16:36.884Z,99385.03
2023-04-02T01:20:33.391Z,99383.94
2023-04-02T01:24:07.202Z,99380.66
2023-04-02T01:27:27.218Z,99384.13
2023-04-02T01:30:36.588Z,99384.69
2023-04-02T01:33:41.581Z,99380.81
2023-04-02T01:37:13.078Z,99382.72
2023-04-02T01:40:50.425Z,99391.78
2023-04-02T01:44:14.286Z,99376.38
2023-04-02T01:47:20.428Z,99391.47
2023-04-02T01:50:31.667Z,99388.16
2023-04-02T01:53:40.428Z,99392.78
2023-04-02T01:56:47.244Z,99410.75
2023-04-02T01:59:49.772Z,99408.84
2023-04-02T02:02:55.102Z,99408.00
2023-04-02T02:05:58.223Z,99409.91
2023-04-02T02:09:06.625Z,99409.66
2023-04-02T02:12:14.967Z,99420.03
2023-04-02T02:15:22.127Z,99410.78
2023-04-02T02:18:27.927Z,99410.06
2023-04-02T02:21:46.521Z,99417.06
2023-04-02T02:24:54.523Z,99403.16
2023-04-02T02:28:17.925Z,99416.00
2023-04-02T02:31:33.195Z,99418.09
2023-04-02T02:34:45.866Z,99408.66
2023-04-02T02:37:57.221Z,99414.59
2023-04-02T02:41:10.417Z,99419.75
2023-04-02T02:44:28.728Z,99411.47
2023-04-02T02:47:34.893Z,99412.63
2023-04-02T02:50:41.218Z,99379.13
2023-04-02T02:53:56.312Z,99407.50
2023-04-02T02:57:04.319Z,99406.66
2023-04-02T03:00:09.953Z,99414.53
2023-04-02T03:03:24.986Z,99411.22
2023-04-02T03:06:32.230Z,99418.09
2023-04-02T03:09:57.271Z,99425.44
2023-04-02T03:13:08.566Z,99420.22
2023-04-02T03:16:13.199Z,99420.16
2023-04-02T03:19:47.948Z,99422.22
2023-04-02T03:23:01.262Z,99408.03
2023-04-02T03:26:29.656Z,99417.91
2023-04-02T03:29:42.280Z,99418.00
2023-04-02T03:32:49.321Z,99412.91
2023-04-02T03:35:57.955Z,99418.50
2023-04-02T03:39:10.007Z,99421.75
2023-04-02T03:42:18.384Z,99426.38
2023-04-02T03:45:28.616Z,99420.25
2023-04-02T03:48:40.911Z,99436.34
2023-04-02T03:52:00.493Z,99424.78
2023-04-02T03:55:15.914Z,99429.69
2023-04-02T03:58:29.732Z,99437.50
2023-04-02T04:02:02.602Z,99423.88
2023-04-02T04:05:06.918Z,99422.13
2023-04-02T04:08:17.690Z,99442.53
2023-04-02T04:11:29.789Z,99438.19
2023-04-02T04:14:38.576Z,99453.41
2023-04-02T04:18:11.694Z,99445.53
2023-04-02T04:21:30.269Z,99462.94
2023-04-02T04:24:39.876Z,99463.19
2023-04-02T04:28:08.745Z,99465.97
2023-04-02T04:31:30.936Z,99463.19
2023-04-02T04:34:51.505Z,99470.44
2023-04-02T04:38:04.778Z,99472.94
2023-04-02T04:41:28.964Z,99467.63
2023-04-02T04:45:01.075Z,99467.63
2023-04-02T04:48:05.997Z,99472.47
2023-04-02T04:51:20.620Z,99455.91
2023-04-02T04:54:31.107Z,99466.38
2023-04-02T04:57:38.046Z,99456.06
2023-04-02T05:00:54.550Z,99469.84
2023-04-02T05:04:12.883Z,99462.16
2023-04-02T05:07:27.858Z,99463.69
2023-04-02T05:10:37.841Z,99470.34
2023-04-02T05:13:52.581Z,99475.91
2023-04-02T05:17:04.812Z,99467.31
2023-04-02T05:20:16.435Z,99484.00
2023-04-02T05:23:34.177Z,99489.84
2023-04-02T05:26:50.439Z,99468.44
2023-04-02T05:30:06.341Z,99491.34
2023-04-02T05:33:27.869Z,99482.06
2023-04-02T05:36:33.088Z,99484.25
2023-04-02T05:39:36.660Z,99484.72
2023-04-02T05:42:43.354Z,99485.28
2023-04-02T05:45:53.842Z,99495.06
2023-04-02T05:49:01.912Z,99501.25
2023-04-02T05:52:13.997Z,99507.09
2023-04-02T05:55:16.793Z,99514.03
2023-04-02T06:01:45.706Z,99509.22
2023-04-02T06:05:07.715Z,99507.50
2023-04-02T06:08:17.383Z,99518.97
2023-04-02T06:11:28.574Z,99496.88
2023-04-02T06:14:32.140Z,99508.69
2023-04-02T06:18:03.970Z,99493.34
2023-04-02T06:21:06.557Z,99486.72
2023-04-02T06:24:14.462Z,99514.13
2023-04-02T06:27:20.162Z,99507.41
2023-04-02T06:30:28.284Z,99520.03
2023-04-02T06:33:31.958Z,99511.22
2023-04-02T06:36:37.278Z,99513.84
2023-04-02T06:39:43.164Z,99509.84
2023-04-02T06:42:48.495Z,99516.22
2023-04-02T06:46:28.303Z,99518.47
2023-04-02T06:50:16.752Z,99522.47
2023-04-02T06:53:26.562Z,99530.22
2023-04-02T06:57:09.116Z,99528.28
2023-04-02T07:00:47.555Z,99531.31
2023-04-02T07:03:59.479Z,99529.53
2023-04-02T07:07:10.303Z,99536.47
2023-04-02T07:10:16.128Z,99529.31
2023-04-02T07:13:22.991Z,99524.72
2023-04-02T07:16:26.976Z,99532.66
2023-04-02T07:19:32.286Z,99524.59
2023-04-02T07:22:37.741Z,99532.34
2023-04-02T07:25:43.058Z,99530.16
2023-04-02T07:28:45.572Z,99534.25
2023-04-02T07:31:47.900Z,99528.16
2023-04-02T07:34:54.467Z,99544.59
2023-04-02T07:37:56.753Z,99536.81
2023-04-02T07:41:07.383Z,99553.81
2023-04-02T07:44:10.972Z,99551.16
2023-04-02T07:47:13.246Z,99549.78
2023-04-02T07:50:20.401Z,99564.00
2023-04-02T07:53:29.986Z,99568.03
2023-04-02T07:56:35.981Z,99563.25
2023-04-02T07:59:40.405Z,99561.53
2023-04-02T08:02:43.003Z,99558.31
2023-04-02T08:05:53.695Z,99567.16
2023-04-02T08:08:57.712Z,99568.69
2023-04-02T08:11:59.976Z,99576.75
2023-04-02T08:15:03.190Z,99575.38
2023-04-02T08:18:08.044Z,99579.81
2023-04-02T08:21:13.742Z,99581.13
2023-04-02T08:24:20.083Z,99586.47
2023-04-02T08:27:28.572Z,99591.69
2023-04-02T08:30:31.257Z,99589.28
2023-04-02T08:33:38.842Z,99583.03
2023-04-02T08:36:44.221Z,99600.72
2023-04-02T08:39:50.912Z,99599.31
2023-04-02T08:42:59.567Z,99602.66
2023-04-02T08:46:31.029Z,99599.22
2023-04-02T08:49:42.221Z,99606.53
2023-04-02T08:52:46.819Z,99603.53
2023-04-02T08:56:05.688Z,99612.06
2023-04-02T08:59:29.117Z,99605.22
2023-04-02T09:02:43.579Z,99607.66
2023-04-02T09:05:50.424Z,99614.00
2023-04-02T09:08:57.259Z,99600.00
2023-04-02T09:12:04.304Z,99601.22
2023-04-02T09:15:18.377Z,99589.50
2023-04-02T09:18:23.283Z,99592.50
2023-04-02T09:21:41.308Z,99599.44
2023-04-02T09:24:53.676Z,99591.06
2023-04-02T09:27:58.083Z,99603.22
2023-04-02T09:31:17.059Z,99592.13
2023-04-02T09:34:36.625Z,99609.81
2023-04-02T09:37:40.440Z,99613.72
2023-04-02T09:40:54.769Z,99623.25
2023-04-02T09:44:23.469Z,99636.09
2023-04-02T09:47:27.354Z,99636.97
2023-04-02T09:50:36.105Z,99629.25
2023-04-02T09:53:46.682Z,99638.19
2023-04-02T09:57:01.747Z,99638.38
2023-04-02T10:00:31.407Z,99648.84
2023-04-02T10:03:51.421Z,99638.31
2023-04-02T10:06:57.889Z,99642.50
2023-04-02T10:10:34.641Z,99640.56
2023-04-02T10:13:54.409Z,99629.06
2023-04-02T10:17:10.090Z,99645.41
2023-04-02T10:20:27.313Z,99634.78
2023-04-02T10:23:31.984Z,99633.09
2023-04-02T10:26:47.498Z,99634.63
2023-04-02T10:30:14.748Z,99632.56
2023-04-02T10:33:24.260Z,99631.94
2023-04-02T10:36:54.659Z,99633.50
2023-04-02T10:40:42.287Z,99628.53
2023-04-02T10:43:59.302Z,99627.16
2023-04-02T10:47:22.437Z,99622.63
2023-04-02T10:50:35.968Z,99623.81
2023-04-02T10:54:04.879Z,99616.75
2023-04-02T10:57:07.217Z,99632.28
2023-04-02T11:00:15.949Z,99636.91
2023-04-02T11:03:36.613Z,99625.38
2023-04-02T11:06:47.141Z,99627.34
2023-04-02T11:09:53.340Z,99629.03
2023-04-02T11:13:07.859Z,99626.47
2023-04-02T11:16:16.537Z,99612.41
2023-04-02T11:19:18.989Z,99619.91
2023-04-02T11:22:27.433Z,99617.06
2023-04-02T11:25:29.740Z,99611.78
2023-04-02T11:28:34.346Z,99610.22
2023-04-02T11:31:36.965Z,99601.66
2023-04-02T11:34:42.866Z,99609.09
2023-04-02T11:37:46.148Z,99600.84
2023-04-02T11:41:00.780Z,99601.59
2023-04-02T11:44:03.178Z,99608.78
2023-04-02T11:47:18.069Z,99607.53
2023-04-02T11:50:34.760Z,99602.16
2023-04-02T11:53:37.348Z,99619.88
2023-04-02T11:57:05.164Z,99607.13
2023-04-02T12:00:33.223Z,99602.09
2023-04-02T12:04:06.089Z,99605.94
2023-04-02T12:07:35.948Z,99601.13
2023-04-02T12:10:53.659Z,99597.38
2023-04-02T12:13:58.532Z,99596.66
2023-04-02T12:17:02.654Z,99600.19
2023-04-02T12:20:10.331Z,99595.38
2023-04-02T12:23:22.140Z,99574.63
2023-04-02T12:26:37.089Z,99573.75
2023-04-02T12:29:39.338Z,99580.88
2023-04-02T12:32:41.910Z,99578.41
2023-04-02T12:35:45.600Z,99581.47
2023-04-02T12:38:54.421Z,99578.16
2023-04-02T12:41:57.731Z,99561.16
2023-04-02T12:45:01.094Z,99567.31
2023-04-02T12:48:06.185Z,99558.41
2023-04-02T12:51:10.683Z,99568.41
2023-04-02T12:54:20.709Z,99565.25
2023-04-02T12:57:26.198Z,99567.56
2023-04-02T13:00:32.293Z,99557.28
2023-04-02T13:03:37.946Z,99562.72
2023-04-02T13:06:47.467Z,99562.72
2023-04-02T13:09:56.581Z,99563.38
2023-04-02T13:13:03.529Z,99563.06
2023-04-02T13:16:14.979Z,99568.66
2023-04-02T13:19:17.108Z,99565.22
2023-04-02T13:22:34.372Z,99580.97
2023-04-02T13:25:39.102Z,99573.41
2023-04-02T13:28:43.724Z,99566.31
2023-04-02T13:31:46.037Z,99579.16
2023-04-02T13:34:48.348Z,99578.88
2023-04-02T13:37:52.915Z,99586.31
2023-04-02T13:40:55.414Z,99585.31
2023-04-02T13:44:00.670Z,99584.41
2023-04-02T13:47:03.081Z,99576.50
2023-04-02T13:50:05.709Z,99575.06
2023-04-02T13:53:13.151Z,99568.06
2023-04-02T13:56:15.549Z,99577.03
2023-04-02T13:59:18.023Z,99570.81
2023-04-02T14:02:25.617Z,99571.13
2023-04-02T14:05:58.738Z,99580.41
2023-04-02T14:09:04.205Z,99583.81
2023-04-02T14:12:36.186Z,99569.72
2023-04-02T14:16:01.918Z,99565.53
2023-04-02T14:19:25.566Z,99573.19
2023-04-02T14:22:42.748Z,99569.78
2023-04-02T14:26:16.028Z,99569.06
2023-04-02T14:29:40.270Z,99575.66
2023-04-02T14:33:01.446Z,99578.69
2023-04-02T14:36:11.414Z,99600.19
2023-04-02T14:39:19.656Z,99597.81
2023-04-02T14:42:27.576Z,99614.78
2023-04-02T14:45:51.746Z,99605.50
2023-04-02T14:48:59.238Z,99618.44
2023-04-02T14:52:06.762Z,99625.41
2023-04-02T14:55:21.639Z,99627.75
2023-04-02T14:58:33.410Z,99630.00
2023-04-02T15:01:43.269Z,99642.09
2023-04-02T15:05:01.837Z,99665.94
2023-04-02T15:08:30.552Z,99674.97
2023-04-02T15:11:39.356Z,99677.56
2023-04-02T15:14:52.440Z,99674.59
2023-04-02T15:17:54.765Z,99677.56
2023-04-02T15:21:31.460Z,99696.16
2023-04-02T15:24:58.641Z,99705.50
2023-04-02T15:28:07.303Z,99713.13
2023-04-02T15:31:15.901Z,99725.53
2023-04-02T15:34:32.037Z,99735.38
2023-04-02T15:38:22.706Z,99742.44
2023-04-02T15:41:32.931Z,99742.63
2023-04-02T15:44:44.346Z,99735.78
2023-04-02T15:48:07.923Z,99740.72
2023-04-02T15:51:28.359Z,99739.59
2023-04-02T15:54:42.378Z,99729.09
2023-04-02T15:58:03.555Z,99722.53
2023-04-02T16:01:18.784Z,99730.75
2023-04-02T16:04:24.191Z,99721.72
2023-04-02T16:07:52.065Z,99728.41
2023-04-02T16:10:54.403Z,99713.41
2023-04-02T16:14:18.286Z,99697.50
2023-04-02T16:17:36.942Z,99714.56
2023-04-02T16:20:47.454Z,99715.16
2023-04-02T16:23:53.302Z,99718.50
2023-04-02T16:27:14.808Z,99722.16
2023-04-02T16:30:37.447Z,99731.34
2023-04-02T16:34:09.440Z,99732.03
2023-04-02T16:37:33.533Z,99744.47
2023-04-02T16:41:08.840Z,99753.53
2023-04-02T16:44:59.778Z,99759.09
2023-04-02T16:48:15.497Z,99768.72
2023-04-02T16:51:35.303Z,99774.53
2023-04-02T16:54:49.136Z,99781.06
2023-04-02T16:58:23.866Z,99771.84
2023-04-02T17:01:45.026Z,99768.22
2023-04-02T17:05:02.026Z,99784.06
2023-04-02T17:08:28.790Z,99791.50
2023-04-02T17:11:43.134Z,99782.19
2023-04-02T17:15:05.790Z,99804.69
2023-04-02T17:18:21.744Z,99795.16
2023-04-02T17:21:26.525Z,99802.31
2023-04-02T17:24:53.865Z,99808.69
2023-04-02T17:27:56.880Z,99811.00
2023-04-02T17:31:04.203Z,99812.41
2023-04-02T17:34:24.315Z,99826.25
2023-04-02T17:37:27.674Z,99819.34
2023-04-02T17:40:43.166Z,99812.63
2023-04-02T17:43:46.177Z,99831.63
2023-04-02T17:47:00.885Z,99828.00
2023-04-02T17:50:12.271Z,99841.16
2023-04-02T17:53:36.872Z,99847.13
2023-04-02T17:57:13.172Z,99859.56
2023-04-02T18:00:33.559Z,99859.38
2023-04-02T18:03:38.420Z,99858.66
2023-04-02T18:06:52.072Z,99862.28
2023-04-02T18:10:03.309Z,99876.78
2023-04-02T18:13:08.250Z,99883.41
2023-04-02T18:16:17.152Z,99884.22
2023-04-02T18:19:50.127Z,99887.13
2023-04-02T18:23:01.373Z,99901.72
2023-04-02T18:26:06.571Z,99908.50
2023-04-02T18:29:55.765Z,99915.88
2023-04-02T18:33:29.727Z,99923.69
2023-04-02T18:36:41.085Z,99920.56
2023-04-02T18:39:49.265Z,99927.34
2023-04-02T18:43:06.692Z,99928.19
2023-04-02T18:46:22.800Z,99936.84
2023-04-02T18:49:47.224Z,99937.34
2023-04-02T18:52:50.856Z,99955.16
2023-04-02T18:56:07.433Z,99949.69
2023-04-02T18:59:15.709Z,99946.38
2023-04-02T19:02:23.561Z,99952.91
2023-04-02T19:05:41.405Z,99949.94
2023-04-02T19:09:11.196Z,99971.41
2023-04-02T19:12:19.353Z,99966.06
2023-04-02T19:15:26.446Z,99960.97
2023-04-02T19:18:51.223Z,99971.75
2023-04-02T19:22:11.980Z,99973.63
2023-04-02T19:25:33.073Z,99989.06
2023-04-02T19:29:00.052Z,99987.38
2023-04-02T19:32:12.975Z,99995.44
2023-04-02T19:35:26.968Z,100008.69
2023-04-02T19:38:44.580Z,100009.75
2023-04-02T19:41:52.403Z,100013.19
2023-04-02T19:44:59.489Z,100011.63
2023-04-02T19:48:28.241Z,100015.31
2023-04-02T19:51:33.588Z,100010.28
2023-04-02T19:54:41.038Z,100028.47
2023-04-02T19:57:46.406Z,100033.91
2023-04-02T20:00:53.439Z,100025.84
2023-04-02T20:03:55.741Z,100032.66
2023-04-02T20:07:00.603Z,100032.66
2023-04-02T20:10:05.566Z,100036.66
2023-04-02T20:13:10.894Z,100045.06
2023-04-02T20:16:14.515Z,100050.44
2023-04-02T20:19:16.933Z,100053.78
2023-04-02T20:22:19.286Z,100057.34
2023-04-02T20:25:24.045Z,100054.09
2023-04-02T20:28:30.096Z,100055.69
2023-04-02T20:31:36.211Z,100070.66
2023-04-02T20:34:39.140Z,100073.91
2023-04-02T20:37:42.130Z,100083.94
2023-04-02T20:40:45.313Z,100077.38
2023-04-02T20:43:47.855Z,100082.22
2023-04-02T20:46:52.719Z,100100.38
2023-04-02T20:49:55.140Z,100100.44
2023-04-02T20:53:01.666Z,100110.63
2023-04-02T20:56:07.324Z,100113.34
2023-04-02T20:59:09.539Z,100130.34
2023-04-02T21:02:12.149Z,100123.72
2023-04-02T21:05:14.505Z,100136.00
2023-04-02T21:08:16.832Z,100125.81
2023-04-02T21:11:19.933Z,100134.59
2023-04-02T21:14:24.792Z,100140.16
2023-04-02T21:17:30.049Z,100137.28
2023-04-02T21:20:33.411Z,100151.81
2023-04-02T21:23:38.693Z,100151.03
2023-04-02T21:26:43.759Z,100157.41
2023-04-02T21:29:48.036Z,100158.91
2023-04-02T21:32:50.343Z,100154.09
2023-04-02T21:35:55.992Z,100164.56
2023-04-02T21:39:01.061Z,100168.63
2023-04-02T21:42:03.688Z,100155.81
2023-04-02T21:45:09.262Z,100167.75
2023-04-02T21:48:11.656Z,100168.03
2023-04-02T21:51:16.812Z,100185.53
2023-04-02T21:54:22.295Z,100185.41
2023-04-02T21:57:31.675Z,100192.84
2023-04-02T22:00:34.038Z,100199.16
2023-04-02T22:03:39.500Z,100198.88
2023-04-02T22:06:42.556Z,100197.66
2023-04-02T22:09:44.755Z,100203.34
2023-04-02T22:12:49.474Z,100211.72
2023-04-02T22:16:00.232Z,100214.72
2023-04-02T22:19:08.764Z,100220.16
2023-04-02T22:22:14.243Z,100216.41
2023-04-02T22:25:16.871Z,100205.78
2023-04-02T22:28:22.143Z,100223.84
2023-04-02T22:31:29.481Z,100224.50
2023-04-02T22:34:38.736Z,100219.50
2023-04-02T22:37:41.111Z,100230.75
2023-04-02T22:40:45.941Z,100241.41
2023-04-02T22:43:48.948Z,100238.47
2023-04-02T22:46:53.938Z,100248.44
2023-04-02T22:49:58.976Z,100228.03
2023-04-02T22:53:01.376Z,100249.00
2023-04-02T22:56:13.279Z,100252.75
2023-04-02T22:59:15.585Z,100259.28
2023-04-02T23:02:17.938Z,100243.84
2023-04-02T23:05:20.899Z,100249.47
2023-04-02T23:08:25.600Z,100257.81
2023-04-02T23:11:28.747Z,100267.03
2023-04-02T23:14:31.060Z,100250.97
2023-04-02T23:17:38.386Z,100266.03
2023-04-02T23:20:41.146Z,100271.28
2023-04-02T23:23:49.279Z,100265.22
2023-04-02T23:26:57.168Z,100272.09
2023-04-02T23:30:01.762Z,100275.00
2023-04-02T23:33:04.827Z,100271.66
2023-04-02T23:36:17.082Z,100284.59
2023-04-02T23:39:22.988Z,100270.88
2023-04-02T23:42:28.414Z,100277.09
2023-04-02T23:45:33.663Z,100278.34
2023-04-02T23:48:35.936Z,100275.66
2023-04-02T23:51:40.924Z,100292.16
2023-04-02T23:54:45.691Z,100285.88
2023-04-02T23:57:50.032Z,100282.53
